Hovedside
METAR-TAF:

METAR-TAF

Lufthavner :

Tammerfors-Birkala lufthavn

Tammerfors, Finland

breddegrad: 61-25N, lengdegrad: 023-35E, høyde over havet: 112 m

Gjeldene værobservasjon

Denne rapporten ble laget for 13 minutter siden, klokken 11:20 UTC
Vind 15 kt fra Vest-nordvest, skiftende mellom Vest og Nord-nordvest
Temperatur 2°C
Luftfuktighet 51%
Trykk 993 hPa
Sikt 10 km eller mer
Få skyer i en høyde av 4300 ft

METAR: EFTP 241120Z 30015KT 270V340 9999 FEW043 02/M07 Q0993

Tid: 13:33 (11:33 UTC)

Varsel

Denne rapporten ble laget for 3 timer og 7 minutter siden, klokken 08:26 UTC
Varsel gyldig fra 24. klokken 09 UTC til 25. klokken 09 UTC
Vind 13 kt fra Vest
Sikt 10 km eller mer
ingen skyer under 1500 m og ingen bygeskyer
Midlertidig
fra 24. klokken 09 UTC til 24. klokken 14 UTC
Vind 15 kt fra Vest-nordvest med vindkast opp mot 28 kt

TAF: EFTP 240826Z 2409/2509 28013KT CAVOK TEMPO 2409/2414 29015G28KT

Værobservasjoner og værvarsel for over 4000 flyplasser (METAR- og TAF-rapporter).

Tilgjengelige stasjoner er representert av de røde og gule prikkene på kartet.

Hold musepekeren over prikken for å se navnet på stasjonen.

Klikk så for å se værobservasjoner og -varsler.

For å forandre kartet kan du klikke på den grønne knappen med svart kryss for å zoome inn, på den grønne knappen med strek for å zoome ut, eller på de grønne pilene for å se tilstøtende kart.


METAR-TAF: